Accueil
METAR-TAF:

METAR-TAF

Aéroports :

Calabar, Nigeria

latitude: 04-58N, longitude: 008-21E, altitude: 63 m

METAR: absent

Heure: 16:00 (15:00 UTC)

Prévision

Le bulletin a été fait il y a 4 heures et 0 minutes, à 11:00 UTC
Prévision valable du 10 à 12 UTC au 11 à 18 UTC
Vent 10 kt de sud/sud-ouest
Visibilité: 7000 m
Nuages fragmentés à une hauteur de 1200 ft
Temporairement
du 10 à 12 UTC au 10 à 17 UTC
Nuages fragmentés à une hauteur de 1300 ft
Quelques nuages à une hauteur de 2000 ft, Cumulonimbus.
Temporairement
du 10 à 14 UTC au 10 à 16 UTC
Visibilité: 5000 m
Nuages fragmentés à une hauteur de 800 ft
Quelques nuages à une hauteur de 1900 ft, Cumulonimbus.
orage, pluie faible
Evoluant progressivement
du 10 à 17 UTC au 10 à 19 UTC
Vent kt de nord
Nuages épars à une hauteur de 900 ft

TAF: DNCA 101100Z 1012/1118 21010KT 7000 BKN012 TEMPO 1012/1017 BKN013 FEW020CB TEMPO 1014/1016 5000 -TSRA BKN008 FEW019CB BECMG 1017/1019 00000KT SCT009

Observations et prévisions météorologiques de plus de 4000 aéroports (messages METAR et TAF).

Les stations disponibles sont représentées par des disques jaunes et rouges sur la carte.

Passer la souris dessus pour voir le nom de la station.

Cliquer dessus pour voir les observations et prévisions météorologiques.

Pour changer de carte: cliquez sur les boutons verts avec une croix noire pour zoomer, sur le bouton vert avec un tiret pour effectuer un zoom arrière, ou sur les flèches vertes pour les cartes adjacentes.


METAR-TAF: